sensor_id;sensor_type;location;lat;lon;timestamp;P1;durP1;ratioP1;P2;durP2;ratioP2
55633;SDS011;41504;53.162;6.788;2022-12-18T00:01:18;74.75;;;31.73;;
55633;SDS011;41504;53.162;6.788;2022-12-18T00:03:52;79.80;;;32.72;;
55633;SDS011;41504;53.162;6.788;2022-12-18T00:06:19;73.22;;;31.20;;
55633;SDS011;41504;53.162;6.788;2022-12-18T00:08:46;77.80;;;31.17;;
55633;SDS011;41504;53.162;6.788;2022-12-18T00:11:13;69.53;;;30.98;;
55633;SDS011;41504;53.162;6.788;2022-12-18T00:13:41;79.82;;;32.15;;
55633;SDS011;41504;53.162;6.788;2022-12-18T00:16:09;84.65;;;35.15;;
55633;SDS011;41504;53.162;6.788;2022-12-18T00:18:36;77.25;;;32.13;;
55633;SDS011;41504;53.162;6.788;2022-12-18T00:21:05;82.57;;;32.97;;
55633;SDS011;41504;53.162;6.788;2022-12-18T00:23:33;72.85;;;32.13;;
55633;SDS011;41504;53.162;6.788;2022-12-18T00:26:00;81.50;;;30.98;;
55633;SDS011;41504;53.162;6.788;2022-12-18T00:28:27;78.40;;;31.45;;
55633;SDS011;41504;53.162;6.788;2022-12-18T00:31:00;77.45;;;31.25;;
55633;SDS011;41504;53.162;6.788;2022-12-18T00:33:30;70.47;;;31.48;;
55633;SDS011;41504;53.162;6.788;2022-12-18T00:36:03;74.18;;;30.48;;
55633;SDS011;41504;53.162;6.788;2022-12-18T00:38:36;72.70;;;31.23;;
55633;SDS011;41504;53.162;6.788;2022-12-18T00:41:03;68.63;;;29.20;;
55633;SDS011;41504;53.162;6.788;2022-12-18T00:43:29;67.53;;;29.60;;
55633;SDS011;41504;53.162;6.788;2022-12-18T00:45:55;68.15;;;30.25;;
55633;SDS011;41504;53.162;6.788;2022-12-18T00:48:21;64.35;;;30.08;;
55633;SDS011;41504;53.162;6.788;2022-12-18T00:50:47;63.47;;;27.65;;
55633;SDS011;41504;53.162;6.788;2022-12-18T00:53:14;66.80;;;30.70;;
55633;SDS011;41504;53.162;6.788;2022-12-18T00:55:40;67.97;;;29.88;;
55633;SDS011;41504;53.162;6.788;2022-12-18T00:58:07;76.20;;;31.75;;
55633;SDS011;41504;53.162;6.788;2022-12-18T01:00:33;70.47;;;30.83;;
55633;SDS011;41504;53.162;6.788;2022-12-18T01:02:58;72.75;;;30.98;;
55633;SDS011;41504;53.162;6.788;2022-12-18T01:05:24;72.63;;;31.35;;
55633;SDS011;41504;53.162;6.788;2022-12-18T01:07:51;69.63;;;32.13;;
55633;SDS011;41504;53.162;6.788;2022-12-18T01:10:16;74.68;;;32.28;;
55633;SDS011;41504;53.162;6.788;2022-12-18T01:12:42;72.50;;;32.42;;
55633;SDS011;41504;53.162;6.788;2022-12-18T01:15:09;66.60;;;30.42;;
55633;SDS011;41504;53.162;6.788;2022-12-18T01:17:39;74.97;;;30.92;;
55633;SDS011;41504;53.162;6.788;2022-12-18T01:20:08;72.03;;;31.35;;
55633;SDS011;41504;53.162;6.788;2022-12-18T01:22:39;72.68;;;31.73;;
55633;SDS011;41504;53.162;6.788;2022-12-18T01:25:05;73.22;;;31.52;;
55633;SDS011;41504;53.162;6.788;2022-12-18T01:27:33;76.32;;;32.70;;
55633;SDS011;41504;53.162;6.788;2022-12-18T01:29:59;74.40;;;31.70;;
55633;SDS011;41504;53.162;6.788;2022-12-18T01:32:25;71.20;;;32.45;;
55633;SDS011;41504;53.162;6.788;2022-12-18T01:34:51;73.75;;;32.03;;
55633;SDS011;41504;53.162;6.788;2022-12-18T01:37:16;76.20;;;32.03;;
55633;SDS011;41504;53.162;6.788;2022-12-18T01:39:42;67.38;;;31.00;;
55633;SDS011;41504;53.162;6.788;2022-12-18T01:42:10;69.53;;;31.25;;
55633;SDS011;41504;53.162;6.788;2022-12-18T01:50:06;74.55;;;30.98;;
55633;SDS011;41504;53.162;6.788;2022-12-18T01:52:40;67.50;;;30.52;;
55633;SDS011;41504;53.162;6.788;2022-12-18T01:55:08;77.18;;;31.83;;
55633;SDS011;41504;53.162;6.788;2022-12-18T01:57:39;73.97;;;30.98;;
55633;SDS011;41504;53.162;6.788;2022-12-18T02:00:11;80.90;;;31.67;;
55633;SDS011;41504;53.162;6.788;2022-12-18T02:02:42;74.88;;;32.40;;
55633;SDS011;41504;53.162;6.788;2022-12-18T02:05:10;71.05;;;32.33;;
55633;SDS011;41504;53.162;6.788;2022-12-18T02:10:32;77.97;;;31.70;;
55633;SDS011;41504;53.162;6.788;2022-12-18T02:13:28;80.00;;;33.30;;
55633;SDS011;41504;53.162;6.788;2022-12-18T02:16:06;78.68;;;33.15;;
55633;SDS011;41504;53.162;6.788;2022-12-18T02:18:38;86.22;;;35.80;;
55633;SDS011;41504;53.162;6.788;2022-12-18T02:23:47;82.85;;;35.45;;
55633;SDS011;41504;53.162;6.788;2022-12-18T02:26:44;83.53;;;34.78;;
55633;SDS011;41504;53.162;6.788;2022-12-18T02:29:18;84.40;;;37.42;;
55633;SDS011;41504;53.162;6.788;2022-12-18T02:31:52;139.32;;;66.53;;
55633;SDS011;41504;53.162;6.788;2022-12-18T02:34:21;88.13;;;35.23;;
55633;SDS011;41504;53.162;6.788;2022-12-18T02:36:51;87.22;;;35.28;;
55633;SDS011;41504;53.162;6.788;2022-12-18T02:39:22;83.70;;;35.78;;
55633;SDS011;41504;53.162;6.788;2022-12-18T02:41:50;82.72;;;36.08;;
55633;SDS011;41504;53.162;6.788;2022-12-18T02:44:17;84.82;;;36.67;;
55633;SDS011;41504;53.162;6.788;2022-12-18T02:46:43;76.80;;;34.38;;
55633;SDS011;41504;53.162;6.788;2022-12-18T02:49:22;78.70;;;34.67;;
55633;SDS011;41504;53.162;6.788;2022-12-18T02:55:08;82.93;;;37.22;;
55633;SDS011;41504;53.162;6.788;2022-12-18T02:57:45;82.03;;;36.95;;
55633;SDS011;41504;53.162;6.788;2022-12-18T03:00:12;84.50;;;35.97;;
55633;SDS011;41504;53.162;6.788;2022-12-18T03:05:28;88.57;;;37.33;;
55633;SDS011;41504;53.162;6.788;2022-12-18T03:08:13;84.38;;;35.40;;
55633;SDS011;41504;53.162;6.788;2022-12-18T03:10:49;76.88;;;35.72;;
55633;SDS011;41504;53.162;6.788;2022-12-18T03:13:27;90.70;;;36.22;;
55633;SDS011;41504;53.162;6.788;2022-12-18T03:15:58;81.78;;;35.55;;
55633;SDS011;41504;53.162;6.788;2022-12-18T03:18:29;92.78;;;37.55;;
55633;SDS011;41504;53.162;6.788;2022-12-18T03:21:02;79.63;;;34.70;;
55633;SDS011;41504;53.162;6.788;2022-12-18T03:23:35;88.88;;;36.90;;
55633;SDS011;41504;53.162;6.788;2022-12-18T03:26:09;85.13;;;36.40;;
55633;SDS011;41504;53.162;6.788;2022-12-18T03:28:46;84.03;;;36.70;;
55633;SDS011;41504;53.162;6.788;2022-12-18T03:31:15;86.07;;;35.78;;
55633;SDS011;41504;53.162;6.788;2022-12-18T03:33:53;81.13;;;36.38;;
55633;SDS011;41504;53.162;6.788;2022-12-18T03:36:24;80.78;;;36.53;;
55633;SDS011;41504;53.162;6.788;2022-12-18T03:38:53;80.70;;;34.65;;
55633;SDS011;41504;53.162;6.788;2022-12-18T03:41:32;84.50;;;36.25;;
55633;SDS011;41504;53.162;6.788;2022-12-18T03:50:03;90.55;;;36.92;;
55633;SDS011;41504;53.162;6.788;2022-12-18T03:55:21;84.68;;;37.88;;
55633;SDS011;41504;53.162;6.788;2022-12-18T03:57:56;82.53;;;35.92;;
55633;SDS011;41504;53.162;6.788;2022-12-18T04:00:23;82.45;;;36.17;;
55633;SDS011;41504;53.162;6.788;2022-12-18T04:02:50;77.45;;;34.30;;
55633;SDS011;41504;53.162;6.788;2022-12-18T04:05:19;75.38;;;34.25;;
55633;SDS011;41504;53.162;6.788;2022-12-18T04:07:46;80.10;;;34.38;;
55633;SDS011;41504;53.162;6.788;2022-12-18T04:10:14;77.05;;;34.28;;
55633;SDS011;41504;53.162;6.788;2022-12-18T04:12:41;76.15;;;34.95;;
55633;SDS011;41504;53.162;6.788;2022-12-18T04:15:08;77.07;;;34.38;;
55633;SDS011;41504;53.162;6.788;2022-12-18T04:17:35;72.93;;;33.08;;
55633;SDS011;41504;53.162;6.788;2022-12-18T04:20:04;73.13;;;33.85;;
55633;SDS011;41504;53.162;6.788;2022-12-18T04:22:30;78.90;;;32.88;;
55633;SDS011;41504;53.162;6.788;2022-12-18T04:24:56;69.68;;;31.90;;
55633;SDS011;41504;53.162;6.788;2022-12-18T04:27:21;69.45;;;32.40;;
55633;SDS011;41504;53.162;6.788;2022-12-18T04:29:47;73.85;;;33.95;;
55633;SDS011;41504;53.162;6.788;2022-12-18T04:32:13;73.22;;;31.98;;
55633;SDS011;41504;53.162;6.788;2022-12-18T04:34:39;69.20;;;32.40;;
55633;SDS011;41504;53.162;6.788;2022-12-18T04:37:04;68.85;;;30.27;;
55633;SDS011;41504;53.162;6.788;2022-12-18T04:39:31;69.13;;;32.55;;
55633;SDS011;41504;53.162;6.788;2022-12-18T04:41:56;65.00;;;31.60;;
55633;SDS011;41504;53.162;6.788;2022-12-18T04:44:24;67.93;;;30.98;;
55633;SDS011;41504;53.162;6.788;2022-12-18T04:46:50;65.53;;;30.15;;
55633;SDS011;41504;53.162;6.788;2022-12-18T04:49:16;64.97;;;31.00;;
55633;SDS011;41504;53.162;6.788;2022-12-18T04:51:41;67.32;;;31.33;;
55633;SDS011;41504;53.162;6.788;2022-12-18T04:54:10;67.13;;;30.45;;
55633;SDS011;41504;53.162;6.788;2022-12-18T04:56:36;70.88;;;32.08;;
55633;SDS011;41504;53.162;6.788;2022-12-18T04:59:01;71.40;;;33.35;;
55633;SDS011;41504;53.162;6.788;2022-12-18T05:01:27;65.95;;;32.45;;
55633;SDS011;41504;53.162;6.788;2022-12-18T05:03:53;66.70;;;31.67;;
55633;SDS011;41504;53.162;6.788;2022-12-18T05:06:19;64.95;;;30.70;;
55633;SDS011;41504;53.162;6.788;2022-12-18T05:08:44;59.97;;;29.83;;
55633;SDS011;41504;53.162;6.788;2022-12-18T05:11:12;58.30;;;27.10;;
55633;SDS011;41504;53.162;6.788;2022-12-18T05:13:42;55.60;;;27.80;;
55633;SDS011;41504;53.162;6.788;2022-12-18T05:16:09;53.17;;;26.52;;
55633;SDS011;41504;53.162;6.788;2022-12-18T05:18:36;55.08;;;27.23;;
55633;SDS011;41504;53.162;6.788;2022-12-18T05:21:02;53.85;;;26.85;;
55633;SDS011;41504;53.162;6.788;2022-12-18T05:23:28;53.15;;;26.95;;
55633;SDS011;41504;53.162;6.788;2022-12-18T05:26:01;51.63;;;26.38;;
55633;SDS011;41504;53.162;6.788;2022-12-18T05:28:29;50.20;;;25.42;;
55633;SDS011;41504;53.162;6.788;2022-12-18T05:30:57;50.97;;;25.73;;
55633;SDS011;41504;53.162;6.788;2022-12-18T05:33:31;49.42;;;25.15;;
55633;SDS011;41504;53.162;6.788;2022-12-18T05:36:00;47.97;;;24.90;;
55633;SDS011;41504;53.162;6.788;2022-12-18T05:38:27;50.50;;;24.95;;
55633;SDS011;41504;53.162;6.788;2022-12-18T05:40:56;44.55;;;24.25;;
55633;SDS011;41504;53.162;6.788;2022-12-18T05:43:22;48.35;;;24.15;;
55633;SDS011;41504;53.162;6.788;2022-12-18T05:45:49;46.38;;;24.98;;
55633;SDS011;41504;53.162;6.788;2022-12-18T05:48:15;47.08;;;24.65;;
55633;SDS011;41504;53.162;6.788;2022-12-18T05:50:42;44.53;;;24.75;;
55633;SDS011;41504;53.162;6.788;2022-12-18T05:53:10;47.78;;;23.67;;
55633;SDS011;41504;53.162;6.788;2022-12-18T05:55:37;46.50;;;23.83;;
55633;SDS011;41504;53.162;6.788;2022-12-18T05:58:04;42.40;;;23.92;;
55633;SDS011;41504;53.162;6.788;2022-12-18T06:00:35;47.60;;;24.33;;
55633;SDS011;41504;53.162;6.788;2022-12-18T06:03:10;44.42;;;23.83;;
55633;SDS011;41504;53.162;6.788;2022-12-18T06:05:38;44.17;;;23.55;;
55633;SDS011;41504;53.162;6.788;2022-12-18T06:08:06;41.13;;;23.55;;
55633;SDS011;41504;53.162;6.788;2022-12-18T06:10:35;44.78;;;23.67;;
55633;SDS011;41504;53.162;6.788;2022-12-18T06:13:02;44.20;;;24.05;;
55633;SDS011;41504;53.162;6.788;2022-12-18T06:15:29;47.60;;;23.80;;
55633;SDS011;41504;53.162;6.788;2022-12-18T06:17:54;44.35;;;23.15;;
55633;SDS011;41504;53.162;6.788;2022-12-18T06:20:20;45.40;;;23.77;;
55633;SDS011;41504;53.162;6.788;2022-12-18T06:22:47;43.00;;;22.83;;
55633;SDS011;41504;53.162;6.788;2022-12-18T06:25:12;46.42;;;24.08;;
55633;SDS011;41504;53.162;6.788;2022-12-18T06:27:38;47.22;;;22.15;;
55633;SDS011;41504;53.162;6.788;2022-12-18T06:30:04;39.90;;;22.83;;
55633;SDS011;41504;53.162;6.788;2022-12-18T06:32:31;43.97;;;23.40;;
55633;SDS011;41504;53.162;6.788;2022-12-18T06:34:57;42.88;;;21.92;;
55633;SDS011;41504;53.162;6.788;2022-12-18T06:37:23;41.17;;;22.73;;
55633;SDS011;41504;53.162;6.788;2022-12-18T06:39:51;43.10;;;23.20;;
55633;SDS011;41504;53.162;6.788;2022-12-18T06:42:23;42.67;;;23.00;;
55633;SDS011;41504;53.162;6.788;2022-12-18T06:44:50;44.88;;;24.05;;
55633;SDS011;41504;53.162;6.788;2022-12-18T06:47:16;48.50;;;23.90;;
55633;SDS011;41504;53.162;6.788;2022-12-18T06:49:41;45.30;;;24.10;;
55633;SDS011;41504;53.162;6.788;2022-12-18T06:52:08;44.88;;;22.75;;
55633;SDS011;41504;53.162;6.788;2022-12-18T06:54:34;41.17;;;22.88;;
55633;SDS011;41504;53.162;6.788;2022-12-18T06:56:59;40.40;;;22.88;;
55633;SDS011;41504;53.162;6.788;2022-12-18T06:59:25;40.38;;;22.27;;
55633;SDS011;41504;53.162;6.788;2022-12-18T07:01:51;44.92;;;24.13;;
55633;SDS011;41504;53.162;6.788;2022-12-18T07:04:16;51.42;;;28.65;;
55633;SDS011;41504;53.162;6.788;2022-12-18T07:06:45;44.92;;;25.75;;
55633;SDS011;41504;53.162;6.788;2022-12-18T07:09:10;44.33;;;25.85;;
55633;SDS011;41504;53.162;6.788;2022-12-18T07:11:36;45.33;;;24.70;;
55633;SDS011;41504;53.162;6.788;2022-12-18T07:14:02;46.05;;;25.30;;
55633;SDS011;41504;53.162;6.788;2022-12-18T07:16:28;43.90;;;23.83;;
55633;SDS011;41504;53.162;6.788;2022-12-18T07:18:54;42.75;;;25.20;;
55633;SDS011;41504;53.162;6.788;2022-12-18T07:21:21;47.63;;;25.60;;
55633;SDS011;41504;53.162;6.788;2022-12-18T07:23:47;41.85;;;25.00;;
55633;SDS011;41504;53.162;6.788;2022-12-18T07:26:14;40.00;;;23.50;;
55633;SDS011;41504;53.162;6.788;2022-12-18T07:28:41;36.85;;;21.17;;
55633;SDS011;41504;53.162;6.788;2022-12-18T07:31:09;34.97;;;20.42;;
55633;SDS011;41504;53.162;6.788;2022-12-18T07:33:40;37.20;;;20.52;;
55633;SDS011;41504;53.162;6.788;2022-12-18T07:36:06;40.40;;;21.02;;
55633;SDS011;41504;53.162;6.788;2022-12-18T07:38:33;37.97;;;21.17;;
55633;SDS011;41504;53.162;6.788;2022-12-18T07:41:03;38.63;;;20.15;;
55633;SDS011;41504;53.162;6.788;2022-12-18T07:43:37;40.30;;;21.83;;
55633;SDS011;41504;53.162;6.788;2022-12-18T07:46:03;38.15;;;21.05;;
55633;SDS011;41504;53.162;6.788;2022-12-18T07:48:36;36.63;;;20.77;;
55633;SDS011;41504;53.162;6.788;2022-12-18T07:51:03;36.60;;;20.97;;
55633;SDS011;41504;53.162;6.788;2022-12-18T07:53:34;32.40;;;20.45;;
55633;SDS011;41504;53.162;6.788;2022-12-18T07:56:05;39.35;;;20.88;;
55633;SDS011;41504;53.162;6.788;2022-12-18T07:58:33;38.30;;;21.20;;
55633;SDS011;41504;53.162;6.788;2022-12-18T08:01:10;36.15;;;21.58;;
55633;SDS011;41504;53.162;6.788;2022-12-18T08:03:39;35.22;;;20.20;;
55633;SDS011;41504;53.162;6.788;2022-12-18T08:06:21;38.35;;;21.83;;
55633;SDS011;41504;53.162;6.788;2022-12-18T08:08:58;38.65;;;21.63;;
55633;SDS011;41504;53.162;6.788;2022-12-18T08:11:24;39.95;;;21.70;;
55633;SDS011;41504;53.162;6.788;2022-12-18T08:13:51;33.47;;;19.23;;
55633;SDS011;41504;53.162;6.788;2022-12-18T08:16:18;29.75;;;19.38;;
55633;SDS011;41504;53.162;6.788;2022-12-18T08:18:46;31.20;;;18.20;;
55633;SDS011;41504;53.162;6.788;2022-12-18T08:21:13;32.08;;;19.33;;
55633;SDS011;41504;53.162;6.788;2022-12-18T08:23:46;37.33;;;20.17;;
55633;SDS011;41504;53.162;6.788;2022-12-18T08:26:13;34.10;;;19.13;;
55633;SDS011;41504;53.162;6.788;2022-12-18T08:28:42;43.17;;;21.13;;
55633;SDS011;41504;53.162;6.788;2022-12-18T08:31:08;40.03;;;22.48;;
55633;SDS011;41504;53.162;6.788;2022-12-18T08:33:40;51.08;;;22.70;;
55633;SDS011;41504;53.162;6.788;2022-12-18T08:36:06;59.05;;;26.23;;
55633;SDS011;41504;53.162;6.788;2022-12-18T08:38:34;71.07;;;28.10;;
55633;SDS011;41504;53.162;6.788;2022-12-18T08:41:10;77.15;;;31.75;;
55633;SDS011;41504;53.162;6.788;2022-12-18T08:43:37;39.50;;;22.40;;
55633;SDS011;41504;53.162;6.788;2022-12-18T08:46:23;36.58;;;21.08;;
55633;SDS011;41504;53.162;6.788;2022-12-18T08:48:50;30.30;;;18.85;;
55633;SDS011;41504;53.162;6.788;2022-12-18T08:51:17;30.38;;;17.67;;
55633;SDS011;41504;53.162;6.788;2022-12-18T08:53:43;26.15;;;17.45;;
55633;SDS011;41504;53.162;6.788;2022-12-18T08:56:09;29.13;;;17.75;;
55633;SDS011;41504;53.162;6.788;2022-12-18T08:58:36;28.02;;;16.45;;
55633;SDS011;41504;53.162;6.788;2022-12-18T09:01:06;30.05;;;17.20;;
55633;SDS011;41504;53.162;6.788;2022-12-18T09:03:36;28.38;;;16.25;;
55633;SDS011;41504;53.162;6.788;2022-12-18T09:06:03;24.77;;;14.85;;
55633;SDS011;41504;53.162;6.788;2022-12-18T09:08:32;23.67;;;14.77;;
55633;SDS011;41504;53.162;6.788;2022-12-18T09:10:59;22.17;;;14.52;;
55633;SDS011;41504;53.162;6.788;2022-12-18T09:13:25;22.63;;;14.25;;
55633;SDS011;41504;53.162;6.788;2022-12-18T09:15:52;20.55;;;13.82;;
55633;SDS011;41504;53.162;6.788;2022-12-18T09:18:20;25.50;;;14.88;;
55633;SDS011;41504;53.162;6.788;2022-12-18T09:20:47;27.23;;;14.93;;
55633;SDS011;41504;53.162;6.788;2022-12-18T09:23:13;25.13;;;15.85;;
55633;SDS011;41504;53.162;6.788;2022-12-18T09:25:40;26.10;;;15.85;;
55633;SDS011;41504;53.162;6.788;2022-12-18T09:28:09;53.30;;;38.20;;
55633;SDS011;41504;53.162;6.788;2022-12-18T09:30:40;28.10;;;16.35;;
55633;SDS011;41504;53.162;6.788;2022-12-18T09:33:08;25.20;;;15.32;;
55633;SDS011;41504;53.162;6.788;2022-12-18T09:35:37;27.85;;;16.02;;
55633;SDS011;41504;53.162;6.788;2022-12-18T09:38:08;25.67;;;15.07;;
55633;SDS011;41504;53.162;6.788;2022-12-18T09:40:41;23.20;;;14.23;;
55633;SDS011;41504;53.162;6.788;2022-12-18T09:43:13;24.35;;;15.20;;
55633;SDS011;41504;53.162;6.788;2022-12-18T09:45:54;24.30;;;14.82;;
55633;SDS011;41504;53.162;6.788;2022-12-18T09:48:34;24.98;;;14.60;;
55633;SDS011;41504;53.162;6.788;2022-12-18T09:51:17;24.27;;;13.60;;
55633;SDS011;41504;53.162;6.788;2022-12-18T09:53:50;22.63;;;14.05;;
55633;SDS011;41504;53.162;6.788;2022-12-18T10:01:24;21.83;;;13.10;;
55633;SDS011;41504;53.162;6.788;2022-12-18T10:03:50;20.58;;;13.48;;
55633;SDS011;41504;53.162;6.788;2022-12-18T10:12:19;21.23;;;12.82;;
55633;SDS011;41504;53.162;6.788;2022-12-18T10:17:49;22.30;;;12.27;;
55633;SDS011;41504;53.162;6.788;2022-12-18T10:23:19;21.15;;;11.68;;
55633;SDS011;41504;53.162;6.788;2022-12-18T10:26:05;19.23;;;11.48;;
55633;SDS011;41504;53.162;6.788;2022-12-18T10:28:34;19.95;;;11.82;;
55633;SDS011;41504;53.162;6.788;2022-12-18T10:31:05;19.92;;;11.80;;
55633;SDS011;41504;53.162;6.788;2022-12-18T10:33:32;19.60;;;12.05;;
55633;SDS011;41504;53.162;6.788;2022-12-18T10:35:59;20.63;;;11.93;;
55633;SDS011;41504;53.162;6.788;2022-12-18T10:38:31;18.13;;;11.05;;
55633;SDS011;41504;53.162;6.788;2022-12-18T10:40:58;18.20;;;10.60;;
55633;SDS011;41504;53.162;6.788;2022-12-18T10:44:24;17.27;;;10.05;;
55633;SDS011;41504;53.162;6.788;2022-12-18T10:46:55;16.75;;;10.13;;
55633;SDS011;41504;53.162;6.788;2022-12-18T10:49:30;16.15;;;9.75;;
55633;SDS011;41504;53.162;6.788;2022-12-18T10:54:51;17.55;;;10.35;;
55633;SDS011;41504;53.162;6.788;2022-12-18T10:59:55;15.98;;;9.32;;
55633;SDS011;41504;53.162;6.788;2022-12-18T11:02:33;15.05;;;8.70;;
55633;SDS011;41504;53.162;6.788;2022-12-18T11:05:23;14.40;;;8.63;;
55633;SDS011;41504;53.162;6.788;2022-12-18T11:07:51;13.48;;;8.27;;
55633;SDS011;41504;53.162;6.788;2022-12-18T11:10:20;13.10;;;7.78;;
55633;SDS011;41504;53.162;6.788;2022-12-18T11:12:47;14.07;;;8.48;;
55633;SDS011;41504;53.162;6.788;2022-12-18T11:15:19;10.80;;;7.10;;
55633;SDS011;41504;53.162;6.788;2022-12-18T11:17:48;12.90;;;7.53;;
55633;SDS011;41504;53.162;6.788;2022-12-18T11:20:34;11.32;;;6.90;;
55633;SDS011;41504;53.162;6.788;2022-12-18T11:23:04;12.63;;;7.60;;
55633;SDS011;41504;53.162;6.788;2022-12-18T11:25:37;12.77;;;7.25;;
55633;SDS011;41504;53.162;6.788;2022-12-18T11:28:04;12.73;;;7.50;;
55633;SDS011;41504;53.162;6.788;2022-12-18T11:31:08;11.57;;;7.28;;
55633;SDS011;41504;53.162;6.788;2022-12-18T11:36:36;11.52;;;7.38;;
55633;SDS011;41504;53.162;6.788;2022-12-18T11:42:04;13.05;;;7.22;;
55633;SDS011;41504;53.162;6.788;2022-12-18T11:47:25;11.57;;;8.05;;
55633;SDS011;41504;53.162;6.788;2022-12-18T11:51:10;11.65;;;7.15;;
55633;SDS011;41504;53.162;6.788;2022-12-18T11:53:02;12.15;;;6.90;;
55633;SDS011;41504;53.162;6.788;2022-12-18T11:55:31;11.38;;;6.88;;
55633;SDS011;41504;53.162;6.788;2022-12-18T11:58:07;13.82;;;7.25;;
55633;SDS011;41504;53.162;6.788;2022-12-18T12:15:38;14.05;;;7.03;;
55633;SDS011;41504;53.162;6.788;2022-12-18T12:34:30;13.73;;;7.18;;
55633;SDS011;41504;53.162;6.788;2022-12-18T12:37:25;14.85;;;7.57;;
55633;SDS011;41504;53.162;6.788;2022-12-18T12:40:10;11.50;;;6.80;;
55633;SDS011;41504;53.162;6.788;2022-12-18T12:42:40;13.80;;;7.97;;
55633;SDS011;41504;53.162;6.788;2022-12-18T12:45:46;14.70;;;7.80;;
55633;SDS011;41504;53.162;6.788;2022-12-18T12:48:19;11.52;;;6.65;;
55633;SDS011;41504;53.162;6.788;2022-12-18T12:53:43;12.82;;;7.05;;
55633;SDS011;41504;53.162;6.788;2022-12-18T12:56:13;13.18;;;7.72;;
55633;SDS011;41504;53.162;6.788;2022-12-18T12:58:46;13.68;;;6.93;;
55633;SDS011;41504;53.162;6.788;2022-12-18T13:01:34;12.45;;;7.20;;
55633;SDS011;41504;53.162;6.788;2022-12-18T13:04:31;13.50;;;6.68;;
55633;SDS011;41504;53.162;6.788;2022-12-18T13:15:44;17.10;;;8.10;;
55633;SDS011;41504;53.162;6.788;2022-12-18T13:18:21;12.68;;;7.20;;
55633;SDS011;41504;53.162;6.788;2022-12-18T13:23:40;13.68;;;7.50;;
55633;SDS011;41504;53.162;6.788;2022-12-18T13:31:57;15.38;;;7.80;;
55633;SDS011;41504;53.162;6.788;2022-12-18T13:36:48;12.13;;;7.63;;
55633;SDS011;41504;53.162;6.788;2022-12-18T13:41:44;13.85;;;7.75;;
55633;SDS011;41504;53.162;6.788;2022-12-18T13:46:55;12.45;;;7.28;;
55633;SDS011;41504;53.162;6.788;2022-12-18T13:49:22;12.15;;;7.30;;
55633;SDS011;41504;53.162;6.788;2022-12-18T13:52:03;14.40;;;7.90;;
55633;SDS011;41504;53.162;6.788;2022-12-18T13:54:45;11.25;;;7.32;;
55633;SDS011;41504;53.162;6.788;2022-12-18T13:57:25;13.68;;;7.88;;
55633;SDS011;41504;53.162;6.788;2022-12-18T13:59:55;16.67;;;8.18;;
55633;SDS011;41504;53.162;6.788;2022-12-18T14:02:23;14.70;;;8.45;;
55633;SDS011;41504;53.162;6.788;2022-12-18T14:04:51;15.15;;;8.45;;
55633;SDS011;41504;53.162;6.788;2022-12-18T14:07:19;15.02;;;8.70;;
55633;SDS011;41504;53.162;6.788;2022-12-18T14:09:48;17.08;;;10.73;;
55633;SDS011;41504;53.162;6.788;2022-12-18T14:17:46;14.55;;;7.57;;
55633;SDS011;41504;53.162;6.788;2022-12-18T14:20:13;12.40;;;6.50;;
55633;SDS011;41504;53.162;6.788;2022-12-18T14:22:43;13.35;;;7.50;;
55633;SDS011;41504;53.162;6.788;2022-12-18T14:27:45;14.02;;;7.75;;
55633;SDS011;41504;53.162;6.788;2022-12-18T14:30:57;18.10;;;9.05;;
55633;SDS011;41504;53.162;6.788;2022-12-18T14:36:00;14.80;;;8.25;;
55633;SDS011;41504;53.162;6.788;2022-12-18T14:40:56;12.02;;;7.50;;
55633;SDS011;41504;53.162;6.788;2022-12-18T14:43:29;14.27;;;7.97;;
55633;SDS011;41504;53.162;6.788;2022-12-18T14:45:57;15.70;;;9.02;;
55633;SDS011;41504;53.162;6.788;2022-12-18T14:53:43;14.20;;;8.68;;
55633;SDS011;41504;53.162;6.788;2022-12-18T14:56:15;13.45;;;7.68;;
55633;SDS011;41504;53.162;6.788;2022-12-18T14:58:51;13.88;;;8.25;;
55633;SDS011;41504;53.162;6.788;2022-12-18T15:01:25;17.00;;;10.55;;
55633;SDS011;41504;53.162;6.788;2022-12-18T15:03:53;19.58;;;11.20;;
55633;SDS011;41504;53.162;6.788;2022-12-18T15:06:24;20.00;;;11.23;;
55633;SDS011;41504;53.162;6.788;2022-12-18T15:08:53;22.95;;;12.50;;
55633;SDS011;41504;53.162;6.788;2022-12-18T15:11:26;19.70;;;11.27;;
55633;SDS011;41504;53.162;6.788;2022-12-18T15:16:56;21.38;;;11.65;;
55633;SDS011;41504;53.162;6.788;2022-12-18T15:19:32;20.52;;;13.32;;
55633;SDS011;41504;53.162;6.788;2022-12-18T15:22:20;18.70;;;10.23;;
55633;SDS011;41504;53.162;6.788;2022-12-18T15:24:46;15.18;;;10.40;;
55633;SDS011;41504;53.162;6.788;2022-12-18T15:27:20;17.42;;;10.93;;
55633;SDS011;41504;53.162;6.788;2022-12-18T15:32:38;18.73;;;10.40;;
55633;SDS011;41504;53.162;6.788;2022-12-18T15:35:13;18.88;;;10.73;;
55633;SDS011;41504;53.162;6.788;2022-12-18T15:37:39;18.75;;;11.20;;
55633;SDS011;41504;53.162;6.788;2022-12-18T15:40:07;17.05;;;10.57;;
55633;SDS011;41504;53.162;6.788;2022-12-18T15:45:22;18.27;;;11.35;;
55633;SDS011;41504;53.162;6.788;2022-12-18T15:47:48;20.67;;;12.00;;
55633;SDS011;41504;53.162;6.788;2022-12-18T15:50:14;18.23;;;11.68;;
55633;SDS011;41504;53.162;6.788;2022-12-18T15:52:43;20.23;;;12.40;;
55633;SDS011;41504;53.162;6.788;2022-12-18T15:55:14;21.10;;;12.43;;
55633;SDS011;41504;53.162;6.788;2022-12-18T15:58:03;18.20;;;11.68;;
55633;SDS011;41504;53.162;6.788;2022-12-18T16:00:31;18.20;;;10.82;;
55633;SDS011;41504;53.162;6.788;2022-12-18T16:02:59;17.63;;;11.25;;
55633;SDS011;41504;53.162;6.788;2022-12-18T16:05:25;18.02;;;11.07;;
55633;SDS011;41504;53.162;6.788;2022-12-18T16:07:52;17.52;;;11.18;;
55633;SDS011;41504;53.162;6.788;2022-12-18T16:10:18;17.80;;;10.70;;
55633;SDS011;41504;53.162;6.788;2022-12-18T16:12:47;18.02;;;10.55;;
55633;SDS011;41504;53.162;6.788;2022-12-18T16:15:13;16.70;;;10.75;;
55633;SDS011;41504;53.162;6.788;2022-12-18T16:17:41;16.85;;;9.98;;
55633;SDS011;41504;53.162;6.788;2022-12-18T16:20:15;17.02;;;9.50;;
55633;SDS011;41504;53.162;6.788;2022-12-18T16:22:43;17.00;;;11.20;;
55633;SDS011;41504;53.162;6.788;2022-12-18T16:25:20;20.15;;;10.45;;
55633;SDS011;41504;53.162;6.788;2022-12-18T16:27:51;14.60;;;9.70;;
55633;SDS011;41504;53.162;6.788;2022-12-18T16:30:21;16.95;;;9.25;;
55633;SDS011;41504;53.162;6.788;2022-12-18T16:32:53;14.07;;;9.40;;
55633;SDS011;41504;53.162;6.788;2022-12-18T16:35:19;15.15;;;8.77;;
55633;SDS011;41504;53.162;6.788;2022-12-18T16:37:45;17.23;;;9.43;;
55633;SDS011;41504;53.162;6.788;2022-12-18T16:40:12;15.35;;;9.10;;
55633;SDS011;41504;53.162;6.788;2022-12-18T16:42:40;13.60;;;7.63;;
55633;SDS011;41504;53.162;6.788;2022-12-18T16:45:08;14.95;;;8.60;;
55633;SDS011;41504;53.162;6.788;2022-12-18T16:47:36;13.70;;;7.68;;
55633;SDS011;41504;53.162;6.788;2022-12-18T16:50:02;13.98;;;7.47;;
55633;SDS011;41504;53.162;6.788;2022-12-18T16:52:28;14.98;;;8.20;;
55633;SDS011;41504;53.162;6.788;2022-12-18T16:54:54;12.52;;;7.05;;
55633;SDS011;41504;53.162;6.788;2022-12-18T16:57:21;13.38;;;8.35;;
55633;SDS011;41504;53.162;6.788;2022-12-18T16:59:47;13.70;;;8.05;;
55633;SDS011;41504;53.162;6.788;2022-12-18T17:02:13;14.15;;;7.95;;
55633;SDS011;41504;53.162;6.788;2022-12-18T17:04:41;16.00;;;7.07;;